Home > Products > Valid Products > TAF

000
FTUS44 KEPZ 022000 AAB
TAFDMN
TAF AMD
KDMN 022002Z 0220/0318 20015G25KT P6SM -SHRA BKN050 OVC070
     FM022200 22014G25KT P6SM VCSH BKN060 OVC100
     FM030500 22010KT P6SM -RA BKN030 OVC070
      TEMPO 0306/0308 30010KT 5SM -RA BKN025 OVC070
     FM030900 28008KT P6SM -SHRA BKN028 OVC070
     FM031500 31007KT P6SM BKN040 BKN070=



000
FTUS44 KEPZ 022000 AAA
TAFTCS
TAF AMD
KTCS 022002Z 0220/0318 19012G24KT P6SM -SHRA SCT050 BKN080 OVC100
     FM022100 21018G29KT P6SM VCSH SCT070 BKN140 OVC200
     FM030400 26006KT P6SM VCSH BKN050 OVC100=



000
FTUS44 KEPZ 021900 AAA
TAFDMN
TAF AMD
KDMN 021913Z 0219/0318 18010KT P6SM VCSH BKN080 OVC150
     FM022200 22014G25KT P6SM VCSH BKN060 OVC100
     FM030500 22010KT P6SM -RA BKN030 OVC070
      TEMPO 0306/0308 30010KT 5SM -RA BKN025 OVC070
     FM030900 28008KT P6SM -SHRA BKN028 OVC070
     FM031500 31007KT P6SM BKN040 BKN070=



000
FTUS44 KEPZ 021900 AAA
TAFDMN
TAF AMD
KDMN 021913Z 0219/0318 18010KT P6SM VCSH BKN080 OVC150
     FM022200 22014G25KT P6SM VCSH BKN060 OVC100
     FM030500 22010KT P6SM -RA BKN030 OVC070
      TEMPO 0306/0308 30010KT 5SM -RA BKN025 OVC070
     FM030900 28008KT P6SM -SHRA BKN028 OVC070
     FM031500 31007KT P6SM BKN040 BKN070=



000
FTUS44 KEPZ 021700 RRA
TAFDMN
TAF
KDMN 021742Z 0218/0318 23012G22KT P6SM VCSH BKN050 OVC100
      TEMPO 0218/0222 24014G24KT 6SM -SHRA BKN030 OVC080
     FM022200 22010KT P6SM -SHRA BKN050 OVC100
      TEMPO 0222/0302 22010KT 3SM -SHRA BKN030 OVC080
     FM030200 22010KT P6SM VCSH BKN050 OVC100=



000
FTUS44 KEPZ 021700 RRA
TAFELP
TAF
KELP 021742Z 0218/0318 18010KT P6SM VCSH SCT070 OVC100
      TEMPO 0218/0222 19012KT P6SM -SHRA BKN060 OVC090
     FM022200 20010KT P6SM -SHRA BKN070 OVC100
     FM031000 22007KT P6SM -SHRA BKN040 OVC070
     FM031400 31007KT P6SM VCSH BKN030 OVC060=



000
FTUS44 KEPZ 021700 RRA
TAFTCS
TAF
KTCS 021742Z 0218/0318 19012G20KT P6SM BKN150 OVC200
     FM022100 21018G29KT P6SM SCT070 BKN140 OVC200
     FM030400 26006KT P6SM VCSH BKN050 OVC100=



000
FTUS44 KEPZ 021700 RRA
TAFDMN
TAF
KDMN 021742Z 0218/0318 23012G22KT P6SM VCSH BKN050 OVC100
      TEMPO 0218/0222 24014G24KT 6SM -SHRA BKN030 OVC080
     FM022200 22010KT P6SM -SHRA BKN050 OVC100
      TEMPO 0222/0302 22010KT 3SM -SHRA BKN030 OVC080
     FM030200 22010KT P6SM VCSH BKN050 OVC100=



000
FTUS44 KEPZ 021700 RRA
TAFTCS
TAF
KTCS 021742Z 0218/0318 19012G20KT P6SM BKN150 OVC200
     FM022100 21018G29KT P6SM SCT070 BKN140 OVC200
     FM030400 26006KT P6SM VCSH BKN050 OVC100=



000
FTUS44 KEPZ 021700 RRA
TAFELP
TAF
KELP 021742Z 0218/0318 18010KT P6SM VCSH SCT070 OVC100
      TEMPO 0218/0222 19012KT P6SM -SHRA BKN060 OVC090
     FM022200 20010KT P6SM -SHRA BKN070 OVC100
     FM031000 22007KT P6SM -SHRA BKN040 OVC070
     FM031400 31007KT P6SM VCSH BKN030 OVC060=



000
FTUS44 KEPZ 021100 RRA
TAFDMN
TAF
KDMN 021157Z 0212/0312 07010KT P6SM VCSH BKN100 OVC250
     FM021800 23012G22KT P6SM VCSH BKN050 OVC100
      TEMPO 0218/0222 24014G24KT 6SM -SHRA BKN030 OVC080
     FM022200 22010KT P6SM -SHRA BKN050 OVC100
      TEMPO 0222/0302 22010KT 3SM -SHRA BKN030 OVC080
     FM030200 22010KT P6SM VCSH BKN050 OVC100=



000
FTUS44 KEPZ 021100 RRA
TAFTCS
TAF
KTCS 021157Z 0212/0312 19010KT P6SM VCSH BKN100 OVC250
     FM021800 23012G22KT P6SM VCSH BKN050 OVC100
      TEMPO 0218/0222 24014G24KT 6SM -SHRA BKN030 OVC080
     FM022200 22010KT P6SM -SHRA BKN050 OVC100
      TEMPO 0222/0302 22010KT 3SM -SHRA BKN030 OVC080
     FM030200 22010KT P6SM VCSH BKN050 OVC100=



000
FTUS44 KEPZ 021100 RRA
TAFELP
TAF
KELP 021157Z 0212/0312 10010KT P6SM VCSH BKN100 OVC250
     FM021800 23012G22KT P6SM VCSH BKN050 OVC100
      TEMPO 0218/0222 24014G24KT 6SM -SHRA BKN030 OVC080
     FM022200 22010KT P6SM -SHRA BKN050 OVC100
      TEMPO 0222/0302 22010KT 3SM -SHRA BKN030 OVC080
     FM030200 22010KT P6SM VCSH BKN050 OVC100=



000
FTUS44 KEPZ 020500
TAFTCS
TAF
KTCS 020526Z 0206/0306 23008KT P6SM VCSH FEW060 BKN120 BKN220
     FM021200 19010KT P6SM VCSH BKN060 BKN100 OVC200
     FM021800 21015G25KT P6SM -SHRA BKN040 OVC100 PROB30 0300/0306
      24014G24KT 6SM -SHRA BKN030 OVC080=



000
FTUS44 KEPZ 020500
TAFELP
TAF
KELP 020526Z 0206/0306 10008KT P6SM VCSH FEW060 BKN120 BKN220
     FM021200 10010KT P6SM VCSH BKN060 BKN100 OVC200
     FM021800 23012G22KT P6SM -SHRA BKN050 OVC100 PROB30 0300/0306
      24014G24KT 6SM -SHRA BKN030 OVC080=



000
FTUS44 KEPZ 020500
TAFDMN
TAF
KDMN 020526Z 0206/0306 18006KT P6SM VCSH FEW060 BKN120 BKN220
     FM021200 07010KT P6SM VCSH BKN060 BKN100 OVC200
     FM021800 23015G25KT P6SM -SHRA BKN050 OVC100 PROB30 0300/0306
      24014G24KT 6SM -SHRA BKN030 OVC080=



000
FTUS44 KEPZ 020500
TAFELP
TAF
KELP 020526Z 0206/0306 10008KT P6SM VCSH FEW060 BKN120 BKN220
     FM021200 10010KT P6SM VCSH BKN060 BKN100 OVC200
     FM021800 23012G22KT P6SM -SHRA BKN050 OVC100 PROB30 0300/0306
      24014G24KT 6SM -SHRA BKN030 OVC080=



000
FTUS44 KEPZ 020500
TAFTCS
TAF
KTCS 020526Z 0206/0306 23008KT P6SM VCSH FEW060 BKN120 BKN220
     FM021200 19010KT P6SM VCSH BKN060 BKN100 OVC200
     FM021800 21015G25KT P6SM -SHRA BKN040 OVC100 PROB30 0300/0306
      24014G24KT 6SM -SHRA BKN030 OVC080=



000
FTUS44 KEPZ 020500
TAFDMN
TAF
KDMN 020526Z 0206/0306 18006KT P6SM VCSH FEW060 BKN120 BKN220
     FM021200 07010KT P6SM VCSH BKN060 BKN100 OVC200
     FM021800 23015G25KT P6SM -SHRA BKN050 OVC100 PROB30 0300/0306
      24014G24KT 6SM -SHRA BKN030 OVC080=



000
FTUS44 KEPZ 020200 AAA
TAFTCS
TAF AMD
KTCS 020246Z 0203/0224 20010KT P6SM SCT100 BKN220
     FM020600 26008KT P6SM VCSH SCT060 BKN100 OVC200
     FM021200 19010KT P6SM -SHRA SCT060 BKN100 OVC200
     FM022100 23017G28KT P6SM -SHRA BKN050 OVC100=



000
FTUS44 KEPZ 020200 AAA
TAFTCS
TAF AMD
KTCS 020246Z 0203/0224 20010KT P6SM SCT100 BKN220
     FM020600 26008KT P6SM VCSH SCT060 BKN100 OVC200
     FM021200 19010KT P6SM -SHRA SCT060 BKN100 OVC200
     FM022100 23017G28KT P6SM -SHRA BKN050 OVC100=



000
FTUS44 KEPZ 020000 CCA
TAFTCS
TAF COR
KTCS 020009Z 0200/0224 20012G25KT P6SM SCT100 BKN220
     FM020600 26008KT P6SM VCSH SCT060 BKN100 OVC200
     FM021200 19010KT P6SM -SHRA SCT060 BKN100 OVC200
     FM022100 23017G28KT P6SM -SHRA BKN050 OVC100=



000
FTUS44 KEPZ 020000 CCA
TAFTCS
TAF COR
KTCS 020009Z 0200/0224 20012G25KT P6SM SCT100 BKN220
     FM020600 26008KT P6SM VCSH SCT060 BKN100 OVC200
     FM021200 19010KT P6SM -SHRA SCT060 BKN100 OVC200
     FM022100 23017G28KT P6SM -SHRA BKN050 OVC100=



000
FTUS44 KEPZ 012300
TAFELP
TAF
KELP 012335Z 0200/0224 21010KT P6SM SCT100 BKN220
     FM020600 05008KT P6SM VCSH SCT060 BKN100 OVC200
     FM021200 10010KT P6SM VCSH SCT060 BKN100 OVC200
     FM021800 20012G22KT P6SM -SHRA BKN050 OVC100=



000
FTUS44 KEPZ 012300
TAFDMN
TAF
KDMN 012335Z 0200/0224 19010G18KT P6SM SCT100 BKN220
     FM020100 25008KT P6SM SCT100 BKN220
     FM020900 08008KT P6SM VCSH SCT060 BKN100 OVC200
     FM021700 23015G25KT P6SM -SHRA BKN050 OVC100=



000
FTUS44 KEPZ 012300
TAFTCS
TAF
KTCS 012335Z 0200/0224 23012G25KT P6SM SCT100 BKN220
     FM020600 26008KT P6SM VCSH SCT060 BKN100 OVC200
     FM021200 19010KT P6SM -SHRA SCT060 BKN100 OVC200
     FM022100 23017G28KT P6SM -SHRA BKN050 OVC100=



000
FTUS44 KEPZ 012300
TAFDMN
TAF
KDMN 012335Z 0200/0224 19010G18KT P6SM SCT100 BKN220
     FM020100 25008KT P6SM SCT100 BKN220
     FM020900 08008KT P6SM VCSH SCT060 BKN100 OVC200
     FM021700 23015G25KT P6SM -SHRA BKN050 OVC100=



000
FTUS44 KEPZ 012300
TAFELP
TAF
KELP 012335Z 0200/0224 21010KT P6SM SCT100 BKN220
     FM020600 05008KT P6SM VCSH SCT060 BKN100 OVC200
     FM021200 10010KT P6SM VCSH SCT060 BKN100 OVC200
     FM021800 20012G22KT P6SM -SHRA BKN050 OVC100=



000
FTUS44 KEPZ 012300
TAFTCS
TAF
KTCS 012335Z 0200/0224 23012G25KT P6SM SCT100 BKN220
     FM020600 26008KT P6SM VCSH SCT060 BKN100 OVC200
     FM021200 19010KT P6SM -SHRA SCT060 BKN100 OVC200
     FM022100 23017G28KT P6SM -SHRA BKN050 OVC100=



000
FTUS44 KEPZ 011700
TAFTCS
TAF
KTCS 011726Z 0118/0218 20014G24KT P6SM FEW080 SCT250
     FM020200 23008KT P6SM SCT200
     FM020600 25005KT P6SM BKN100
     FM021500 18011KT P6SM SCT050 BKN100=



000
FTUS44 KEPZ 011700
TAFDMN
TAF
KDMN 011726Z 0118/0218 23010KT P6SM FEW060 SCT250
     FM012000 23012G22KT P6SM FEW070 SCT250
     FM020200 26008KT P6SM BKN200
     FM020900 07006KT P6SM BKN120
     FM021500 15009KT P6SM BKN070 OVC150=



000
FTUS44 KEPZ 011700
TAFTCS
TAF
KTCS 011726Z 0118/0218 20014G24KT P6SM FEW080 SCT250
     FM020200 23008KT P6SM SCT200
     FM020600 25005KT P6SM BKN100
     FM021500 18011KT P6SM SCT050 BKN100=



000
FTUS44 KEPZ 011700
TAFELP
TAF
KELP 011726Z 0118/0218 20010KT P6SM BKN250
     FM020600 05008KT P6SM BKN100=



000
FTUS44 KEPZ 011700
TAFDMN
TAF
KDMN 011726Z 0118/0218 23010KT P6SM FEW060 SCT250
     FM012000 23012G22KT P6SM FEW070 SCT250
     FM020200 26008KT P6SM BKN200
     FM020900 07006KT P6SM BKN120
     FM021500 15009KT P6SM BKN070 OVC150=



000
FTUS44 KEPZ 011100 RRA
TAFDMN
TAF
KDMN 011158Z 0112/0212 25010KT P6SM SCT250
     FM011800 23012KT P6SM FEW150 SCT250
     FM020600 15008KT P6SM BKN100=



000
FTUS44 KEPZ 011100 RRA
TAFTCS
TAF
KTCS 011158Z 0112/0212 19006KT P6SM SCT250
     FM011800 20015KT P6SM FEW150 SCT250
     FM020600 29008KT P6SM BKN100=



000
FTUS44 KEPZ 011100 RRA
TAFELP
TAF
KELP 011158Z 0112/0212 15005KT P6SM SCT250
     FM011800 22014KT P6SM FEW150 SCT250
     FM020600 15006KT P6SM BKN100=



000
FTUS44 KEPZ 010500
TAFELP
TAF
KELP 010520Z 0106/0206 24011KT P6SM SCT250
     FM010900 15005KT P6SM SCT250
     FM011800 22014KT P6SM FEW150 SCT250=



000
FTUS44 KEPZ 010500
TAFTCS
TAF
KTCS 010520Z 0106/0206 24007KT P6SM FEW070 SCT250
     FM010900 29006KT P6SM SCT250
     FM011500 16005KT P6SM FEW150 SCT250
     FM012000 20015KT P6SM FEW150 SCT250=



000
FTUS44 KEPZ 010500
TAFTCS
TAF
KTCS 010520Z 0106/0206 24007KT P6SM FEW070 SCT250
     FM010900 29006KT P6SM SCT250
     FM011500 16005KT P6SM FEW150 SCT250
     FM012000 20015KT P6SM FEW150 SCT250=



000
FTUS44 KEPZ 010500
TAFDMN
TAF
KDMN 010520Z 0106/0206 25010KT P6SM SCT070 SCT250
     FM011800 23015KT P6SM FEW150 SCT250=



000
FTUS44 KEPZ 010500
TAFELP
TAF
KELP 010520Z 0106/0206 24011KT P6SM SCT250
     FM010900 15005KT P6SM SCT250
     FM011800 22014KT P6SM FEW150 SCT250=



000
FTUS44 KEPZ 282300 RRA
TAFELP
TAF
KELP 282350Z 0100/0124 19009KT P6SM FEW060
     FM010100 22012G20KT P6SM SCT250
     FM010300 24011KT P6SM SCT250
     FM010900 15005KT P6SM SCT250
     FM011800 22014KT P6SM FEW150 SCT250=



000
FTUS44 KEPZ 282300 RRA
TAFDMN
TAF
KDMN 282350Z 0100/0124 24020G30KT P6SM BKN070
     FM010200 25010KT P6SM SCT070 SCT250=



000
FTUS44 KEPZ 282300 RRA
TAFTCS
TAF
KTCS 282350Z 0100/0124 19012G20KT P6SM BKN070
     FM010200 24007KT P6SM SCT050 BKN250
     FM011500 16005KT P6SM FEW150 SCT250
     FM012000 20015KT P6SM FEW150 SCT250=



000
FTUS44 KEPZ 282300 RRA
TAFELP
TAF
KELP 282350Z 0100/0124 19009KT P6SM FEW060
     FM010100 22012G20KT P6SM SCT250
     FM010300 24011KT P6SM SCT250
     FM010900 15005KT P6SM SCT250
     FM011800 22014KT P6SM FEW150 SCT250=



000
FTUS44 KEPZ 282300 RRA
TAFDMN
TAF
KDMN 282350Z 0100/0124 24020G30KT P6SM BKN070
     FM010200 25010KT P6SM SCT070 SCT250=



000
FTUS44 KEPZ 282300 RRA
TAFTCS
TAF
KTCS 282350Z 0100/0124 19012G20KT P6SM BKN070
     FM010200 24007KT P6SM SCT050 BKN250
     FM011500 16005KT P6SM FEW150 SCT250
     FM012000 20015KT P6SM FEW150 SCT250=



000
FTUS44 KEPZ 282000 AAA
TAFELP
TAF AMD
KELP 282059Z 2821/0118 17009KT P6SM FEW060
     FM282300 24015G25KT P6SM SCT070
     FM010200 24011KT P6SM SCT250
     FM010900 15005KT P6SM SCT250=



000
FTUS44 KEPZ 282000 AAA
TAFELP
TAF AMD
KELP 282059Z 2821/0118 17009KT P6SM FEW060
     FM282300 24015G25KT P6SM SCT070
     FM010200 24011KT P6SM SCT250
     FM010900 15005KT P6SM SCT250=



000
FTUS44 KEPZ 282000 AAA
TAFTCS
TAF AMD
KTCS 282058Z 2821/0118 19011KT P6SM BKN070 BKN250
     FM282300 21013G23KT P6SM BKN070 BKN250
     FM010200 24007KT P6SM SCT050 BKN250
     FM011500 16005KT P6SM SCT050 SCT250=



000
FTUS44 KEPZ 281700
TAFELP
TAF
KELP 281722Z 2818/0118 16009KT P6SM FEW060
     FM282100 24015G25KT P6SM SCT070
     FM010200 24011KT P6SM SCT250
     FM010900 15005KT P6SM SCT250=



000
FTUS44 KEPZ 281700
TAFDMN
TAF
KDMN 281722Z 2818/0118 20010KT P6SM FEW060
     FM282000 24020G30KT P6SM BKN070
     FM010200 25008KT P6SM FEW050 SCT250=



000
FTUS44 KEPZ 281700
TAFTCS
TAF
KTCS 281722Z 2818/0118 19011KT P6SM BKN050 BKN250
     FM282000 21015G25KT P6SM BKN050 BKN250
     FM010200 24007KT P6SM SCT040 BKN250
     FM011500 16005KT P6SM SCT040 SCT250=



000
FTUS44 KEPZ 281200 AAA
TAFELP
TAF AMD
KELP 281258Z 2813/0112 05010KT P6SM SCT015 BKN250
      TEMPO 2813/2816 BKN015
     FM281600 14009KT P6SM SCT250
     FM282000 24015G25KT P6SM SCT070
     FM010200 26011KT P6SM SCT250=



000
FTUS44 KEPZ 281200 AAA
TAFELP
TAF AMD
KELP 281258Z 2813/0112 05010KT P6SM SCT015 BKN250
      TEMPO 2813/2816 BKN015
     FM281600 14009KT P6SM SCT250
     FM282000 24015G25KT P6SM SCT070
     FM010200 26011KT P6SM SCT250=



000
FTUS44 KEPZ 281200 RRA
TAFDMN
TAF
KDMN 281201Z 2812/0112 08006KT P6SM SCT050 BKN250
     FM281700 20011KT P6SM FEW050 SCT200
     FM282000 24020G30KT P6SM BKN050
     FM010200 25010KT P6SM FEW050 SCT250=



000
FTUS44 KEPZ 281200 RRA
TAFTCS
TAF
KTCS 281201Z 2812/0112 20006KT P6SM BKN060
     FM281800 21014G24KT P6SM BKN070 BKN250
     FM010200 23008KT P6SM BKN100 BKN250=



000
FTUS44 KEPZ 281200 RRA
TAFTCS
TAF
KTCS 281201Z 2812/0112 20006KT P6SM BKN060
     FM281800 21014G24KT P6SM BKN070 BKN250
     FM010200 23008KT P6SM BKN100 BKN250=



000
FTUS44 KEPZ 281200 RRA
TAFDMN
TAF
KDMN 281201Z 2812/0112 08006KT P6SM SCT050 BKN250
     FM281700 20011KT P6SM FEW050 SCT200
     FM282000 24020G30KT P6SM BKN050
     FM010200 25010KT P6SM FEW050 SCT250=



000
FTUS44 KEPZ 281200 RRA
TAFELP
TAF
KELP 281201Z 2812/0112 05010KT P6SM BKN250
     FM281600 14009KT P6SM SCT250
     FM282000 24015G25KT P6SM SCT070
     FM010200 26011KT P6SM SCT250=



000
FTUS44 KEPZ 281200 RRA
TAFELP
TAF
KELP 281201Z 2812/0112 05010KT P6SM BKN250
     FM281600 14009KT P6SM SCT250
     FM282000 24015G25KT P6SM SCT070
     FM010200 26011KT P6SM SCT250=



000
FTUS44 KEPZ 280500 RRA
TAFTCS
TAF
KTCS 280542Z 2806/0106 13007KT P6SM SCT060 BKN250
     FM281200 16006KT P6SM BKN200
     FM281800 20014G24KT P6SM SCT070 BKN250
     FM282100 23017G27KT P6SM BKN060 BKN250
     FM010200 23008KT P6SM SCT050 SCT250=



000
FTUS44 KEPZ 280500 RRA
TAFELP
TAF
KELP 280542Z 2806/0106 05010KT P6SM FEW070 BKN200
     FM281600 14009KT P6SM SCT250
     FM282000 24015G25KT P6SM SCT070
     FM010200 26011KT P6SM FEW250=



000
FTUS44 KEPZ 280500 RRA
TAFDMN
TAF
KDMN 280542Z 2806/0106 08006KT P6SM SCT050 BKN200
     FM281300 14007KT P6SM BKN200
     FM281700 20011KT P6SM FEW050 SCT200
     FM282000 24020G30KT P6SM BKN050
     FM010200 25010KT P6SM FEW050 SCT250=



000
FTUS44 KEPZ 280500 RRA
TAFTCS
TAF
KTCS 280542Z 2806/0106 13007KT P6SM SCT060 BKN250
     FM281200 16006KT P6SM BKN200
     FM281800 20014G24KT P6SM SCT070 BKN250
     FM282100 23017G27KT P6SM BKN060 BKN250
     FM010200 23008KT P6SM SCT050 SCT250=



000
FTUS44 KEPZ 280500 RRA
TAFELP
TAF
KELP 280542Z 2806/0106 05010KT P6SM FEW070 BKN200
     FM281600 14009KT P6SM SCT250
     FM282000 24015G25KT P6SM SCT070
     FM010200 26011KT P6SM FEW250=



000
FTUS44 KEPZ 280500 RRA
TAFDMN
TAF
KDMN 280542Z 2806/0106 08006KT P6SM SCT050 BKN200
     FM281300 14007KT P6SM BKN200
     FM281700 20011KT P6SM FEW050 SCT200
     FM282000 24020G30KT P6SM BKN050
     FM010200 25010KT P6SM FEW050 SCT250=



000
FTUS44 KEPZ 280200 AAA
TAFELP
TAF AMD
KELP 280257Z 2803/2824 05010KT P6SM FEW070 BKN250
     FM281600 14009KT P6SM FEW025 SCT250
     FM282000 24015G25KT P6SM SCT070=



000
FTUS44 KEPZ 280200 AAA
TAFELP
TAF AMD
KELP 280257Z 2803/2824 05010KT P6SM FEW070 BKN250
     FM281600 14009KT P6SM FEW025 SCT250
     FM282000 24015G25KT P6SM SCT070=



000
FTUS44 KEPZ 280100 AAA
TAFTCS
TAF AMD
KTCS 280119Z 2801/2824 16008KT P6SM FEW070 BKN200
     FM280600 18007KT P6SM SCT015 BKN150 BKN250
      TEMPO 2809/2813 BKN015
     FM281800 21017G27KT P6SM SCT060 BKN250=



000
FTUS44 KEPZ 280100 AAA
TAFTCS
TAF AMD
KTCS 280119Z 2801/2824 16008KT P6SM FEW070 BKN200
     FM280600 18007KT P6SM SCT015 BKN150 BKN250
      TEMPO 2809/2813 BKN015
     FM281800 21017G27KT P6SM SCT060 BKN250=



000
FTUS44 KEPZ 272300
TAFELP
TAF
KELP 272334Z 2800/2824 12012KT P6SM FEW025 SCT250
     FM280500 07008KT P6SM SCT020 BKN250
     FM281600 14009KT P6SM FEW025 SCT250
     FM282000 24015G25KT P6SM SCT070=



000
FTUS44 KEPZ 272300
TAFDMN
TAF
KDMN 272334Z 2800/2824 14008KT P6SM FEW200
     FM280400 08006KT P6SM SCT060 BKN200
     FM281700 24014G24KT P6SM FEW050 SCT200
     FM282000 25023G33KT P6SM BKN050=



000
FTUS44 KEPZ 272300
TAFTCS
TAF
KTCS 272334Z 2800/2824 16008G18KT P6SM FEW070 BKN200
     FM280600 18007KT P6SM SCT015 BKN150 BKN250
      TEMPO 2809/2813 BKN015
     FM281800 21017G27KT P6SM SCT060 BKN250=



000
FTUS44 KEPZ 272300
TAFELP
TAF
KELP 272334Z 2800/2824 12012KT P6SM FEW025 SCT250
     FM280500 07008KT P6SM SCT020 BKN250
     FM281600 14009KT P6SM FEW025 SCT250
     FM282000 24015G25KT P6SM SCT070=



000
FTUS44 KEPZ 272300
TAFDMN
TAF
KDMN 272334Z 2800/2824 14008KT P6SM FEW200
     FM280400 08006KT P6SM SCT060 BKN200
     FM281700 24014G24KT P6SM FEW050 SCT200
     FM282000 25023G33KT P6SM BKN050=



000
FTUS44 KEPZ 272300
TAFTCS
TAF
KTCS 272334Z 2800/2824 16008G18KT P6SM FEW070 BKN200
     FM280600 18007KT P6SM SCT015 BKN150 BKN250
      TEMPO 2809/2813 BKN015
     FM281800 21017G27KT P6SM SCT060 BKN250=



    US Dept of Commerce
    National Oceanic and Atmospheric Administration
    National Weather Service
    1325 East West Highway
    Silver Spring, MD 20910
    Page Author: NWS Internet Services Team
Disclaimer
Information Quality
Credits
Glossary
Privacy Policy
Freedom of Information Act (FOIA)
About Us
Career Opportunities